createdAt,value
2018-06-25T00:01:46.259Z,2.50
2018-06-25T00:04:14.317Z,3.10
2018-06-25T00:06:42.858Z,2.80
2018-06-25T00:09:11.747Z,2.80
2018-06-25T00:11:40.146Z,3.00
2018-06-25T00:14:08.607Z,2.70
2018-06-25T00:16:37.024Z,2.70
2018-06-25T00:19:05.396Z,2.70
2018-06-25T00:21:33.754Z,3.20
2018-06-25T00:24:02.119Z,2.70
2018-06-25T00:26:30.570Z,3.40
2018-06-25T00:28:59.025Z,2.67
2018-06-25T00:31:27.649Z,2.70
2018-06-25T00:33:56.163Z,3.10
2018-06-25T00:36:24.529Z,2.53
2018-06-25T00:38:52.975Z,2.67
2018-06-25T00:41:21.462Z,2.83
2018-06-25T00:43:49.863Z,3.20
2018-06-25T00:46:18.286Z,3.10
2018-06-25T00:48:47.515Z,2.70
2018-06-25T00:51:15.868Z,2.40
2018-06-25T00:53:44.215Z,2.40
2018-06-25T00:56:12.605Z,2.40
2018-06-25T00:58:52.426Z,2.63
2018-06-25T01:01:20.861Z,2.73
2018-06-25T01:03:49.265Z,2.33
2018-06-25T01:06:17.655Z,2.50
2018-06-25T01:08:46.006Z,2.50
2018-06-25T01:11:14.440Z,2.73
2018-06-25T01:13:42.850Z,2.50
2018-06-25T01:16:11.218Z,2.03
2018-06-25T01:18:39.364Z,2.37
2018-06-25T01:21:07.750Z,2.77
2018-06-25T01:23:36.110Z,2.40
2018-06-25T01:26:04.467Z,2.30
2018-06-25T01:28:32.865Z,2.87
2018-06-25T01:31:01.353Z,3.33
2018-06-25T01:33:29.722Z,2.43
2018-06-25T01:35:58.152Z,3.23
2018-06-25T01:38:26.570Z,2.80
2018-06-25T01:40:55.005Z,2.87
2018-06-25T01:43:23.366Z,2.20
2018-06-25T01:45:51.784Z,2.40
2018-06-25T01:48:20.221Z,3.10
2018-06-25T01:50:48.534Z,2.57
2018-06-25T01:53:17.009Z,2.60
2018-06-25T01:55:45.354Z,2.40
2018-06-25T01:58:13.710Z,2.43
2018-06-25T02:00:42.130Z,2.70
2018-06-25T02:03:10.474Z,2.90
2018-06-25T02:05:38.956Z,2.50
2018-06-25T02:08:07.437Z,2.90
2018-06-25T02:10:35.940Z,2.93
2018-06-25T02:13:04.342Z,2.37
2018-06-25T02:15:32.701Z,2.70
2018-06-25T02:18:01.198Z,3.00
2018-06-25T02:20:29.598Z,2.00
2018-06-25T02:22:58.011Z,2.90
2018-06-25T02:25:26.446Z,2.30
2018-06-25T02:27:54.788Z,3.20
2018-06-25T02:30:23.138Z,2.87
2018-06-25T02:32:51.598Z,2.47
2018-06-25T02:35:19.958Z,3.00
2018-06-25T02:37:48.301Z,2.60
2018-06-25T02:40:16.657Z,2.40
2018-06-25T02:42:45.054Z,2.33
2018-06-25T02:45:13.428Z,2.03
2018-06-25T02:47:41.573Z,2.80
2018-06-25T02:50:09.842Z,2.60
2018-06-25T02:52:38.216Z,2.77
2018-06-25T02:55:06.558Z,2.40
2018-06-25T02:57:34.922Z,2.27
2018-06-25T03:00:03.325Z,2.57
2018-06-25T03:02:31.933Z,2.17
2018-06-25T03:05:00.374Z,1.93
2018-06-25T03:07:28.560Z,2.07
2018-06-25T03:09:57.042Z,2.07
2018-06-25T03:12:25.475Z,2.20
2018-06-25T03:14:53.871Z,1.77
2018-06-25T03:17:22.236Z,2.23
2018-06-25T03:19:50.662Z,2.00
2018-06-25T03:22:19.015Z,2.30
2018-06-25T03:24:47.381Z,2.40
2018-06-25T03:27:15.721Z,1.77
2018-06-25T03:29:44.184Z,2.30
2018-06-25T03:32:12.658Z,2.03
2018-06-25T03:34:41.006Z,2.23
2018-06-25T03:37:09.366Z,2.00
2018-06-25T03:39:37.820Z,1.93
2018-06-25T03:42:06.353Z,1.90
2018-06-25T03:44:34.693Z,2.30
2018-06-25T03:47:03.100Z,2.03
2018-06-25T03:49:31.500Z,1.97
2018-06-25T03:51:59.885Z,1.90
2018-06-25T03:54:28.221Z,2.00
2018-06-25T03:56:56.597Z,2.73
2018-06-25T03:59:25.227Z,2.00
2018-06-25T04:01:53.882Z,1.60
2018-06-25T04:04:22.773Z,2.70
2018-06-25T04:06:51.131Z,1.73
2018-06-25T04:09:19.500Z,1.73
2018-06-25T04:11:47.839Z,2.17
2018-06-25T04:14:16.209Z,1.60
2018-06-25T04:16:44.537Z,2.03
2018-06-25T04:19:12.961Z,1.60
2018-06-25T04:21:41.319Z,2.43
2018-06-25T04:24:09.698Z,1.90
2018-06-25T04:26:38.038Z,1.83
2018-06-25T04:29:06.417Z,2.47
2018-06-25T04:31:34.821Z,1.90
2018-06-25T04:34:05.148Z,1.70
2018-06-25T04:36:33.483Z,1.77
2018-06-25T04:39:01.862Z,2.40
2018-06-25T04:41:30.238Z,1.90
2018-06-25T04:43:58.725Z,2.40
2018-06-25T04:46:27.173Z,1.67
2018-06-25T04:48:55.540Z,1.77
2018-06-25T04:51:23.916Z,2.07
2018-06-25T04:53:52.352Z,2.20
2018-06-25T04:56:20.734Z,2.00
2018-06-25T04:58:49.092Z,1.70
2018-06-25T05:01:17.695Z,1.90
2018-06-25T05:03:46.609Z,1.90
2018-06-25T05:06:15.005Z,1.57
2018-06-25T05:08:43.726Z,1.87
2018-06-25T05:11:12.149Z,1.60
2018-06-25T05:13:40.606Z,1.80
2018-06-25T05:16:09.004Z,2.07
2018-06-25T05:18:37.609Z,1.90
2018-06-25T05:21:06.464Z,1.80
2018-06-25T05:23:34.964Z,2.47
2018-06-25T05:26:03.260Z,1.83
2018-06-25T05:28:31.613Z,1.70
2018-06-25T05:30:59.986Z,1.70
2018-06-25T05:33:28.371Z,1.83
2018-06-25T05:35:56.883Z,1.73
2018-06-25T05:38:25.250Z,1.87
2018-06-25T05:40:53.866Z,1.80
2018-06-25T05:43:22.263Z,2.07
2018-06-25T05:45:50.662Z,2.10
2018-06-25T05:48:19.018Z,2.33
2018-06-25T05:50:47.512Z,2.17
2018-06-25T05:53:15.897Z,2.20
2018-06-25T05:55:44.505Z,2.47
2018-06-25T05:58:12.866Z,2.10
2018-06-25T06:00:41.269Z,2.10
2018-06-25T06:03:09.602Z,1.50
2018-06-25T06:05:38.016Z,2.00
2018-06-25T06:08:06.420Z,2.03
2018-06-25T06:10:34.859Z,1.90
2018-06-25T06:13:03.340Z,1.83
2018-06-25T06:15:31.767Z,2.03
2018-06-25T06:18:00.197Z,2.33
2018-06-25T06:20:28.627Z,1.70
2018-06-25T06:22:56.712Z,1.77
2018-06-25T06:25:25.241Z,1.60
2018-06-25T06:27:53.783Z,2.20
2018-06-25T06:30:22.341Z,1.97
2018-06-25T06:32:50.762Z,2.40
2018-06-25T06:35:19.142Z,2.23
2018-06-25T06:37:47.591Z,2.00
2018-06-25T06:40:16.206Z,1.87
2018-06-25T06:42:44.820Z,2.13
2018-06-25T06:45:13.235Z,2.00
2018-06-25T06:47:41.577Z,1.50
2018-06-25T06:50:10.099Z,1.90
2018-06-25T06:52:38.446Z,2.07
2018-06-25T06:55:06.995Z,1.87
2018-06-25T06:57:35.437Z,2.10
2018-06-25T07:00:04.680Z,1.90
2018-06-25T07:02:33.050Z,1.80
2018-06-25T07:05:01.539Z,1.83
2018-06-25T07:07:29.981Z,2.10
2018-06-25T07:09:58.532Z,2.20
2018-06-25T07:12:26.916Z,1.73
2018-06-25T07:14:55.244Z,1.90
2018-06-25T07:17:23.640Z,1.97
2018-06-25T07:19:52.083Z,2.60
2018-06-25T07:22:20.462Z,2.07
2018-06-25T07:24:48.823Z,1.60
2018-06-25T07:27:17.204Z,2.00
2018-06-25T07:29:45.686Z,2.20
2018-06-25T07:32:14.104Z,2.00
2018-06-25T07:34:42.429Z,1.93
2018-06-25T07:37:11.290Z,2.03
2018-06-25T07:39:39.717Z,2.00
2018-06-25T07:42:08.234Z,2.00
2018-06-25T07:44:36.813Z,2.17
2018-06-25T07:47:05.472Z,2.03
2018-06-25T07:49:33.837Z,1.97
2018-06-25T07:52:02.236Z,2.00
2018-06-25T07:54:30.651Z,2.10
2018-06-25T07:56:59.165Z,2.57
2018-06-25T07:59:27.590Z,2.17
2018-06-25T08:01:55.966Z,2.40
2018-06-25T08:04:24.349Z,2.30
2018-06-25T08:06:52.730Z,2.70
2018-06-25T08:09:21.103Z,2.43
2018-06-25T08:11:49.534Z,2.83
2018-06-25T08:14:17.577Z,2.30
2018-06-25T08:16:46.092Z,2.70
2018-06-25T08:19:14.369Z,2.50
2018-06-25T08:21:42.893Z,2.40
2018-06-25T08:24:11.834Z,2.50
2018-06-25T08:26:40.391Z,2.60
2018-06-25T08:29:08.832Z,2.50
2018-06-25T08:31:37.641Z,2.50
2018-06-25T08:34:06.137Z,2.63
2018-06-25T08:36:34.482Z,3.53
2018-06-25T08:39:03.534Z,2.27
2018-06-25T08:41:32.017Z,2.37
2018-06-25T08:44:00.449Z,2.10
2018-06-25T08:46:28.818Z,2.97
2018-06-25T08:48:57.235Z,2.23
2018-06-25T08:51:25.607Z,2.20
2018-06-25T08:53:54.003Z,2.60
2018-06-25T08:56:22.685Z,2.40
2018-06-25T08:58:51.062Z,2.20
2018-06-25T09:01:19.771Z,2.10
2018-06-25T09:03:48.398Z,1.73
2018-06-25T09:06:16.951Z,2.57
2018-06-25T09:08:45.359Z,2.27
2018-06-25T09:11:13.801Z,2.50
2018-06-25T09:13:42.278Z,2.73
2018-06-25T09:16:10.788Z,2.30
2018-06-25T09:18:39.229Z,2.03
2018-06-25T09:21:07.705Z,2.20
2018-06-25T09:23:36.178Z,1.80
2018-06-25T09:26:04.782Z,2.00
2018-06-25T09:28:33.131Z,1.47
2018-06-25T09:31:01.365Z,2.30
2018-06-25T09:33:29.754Z,1.80
2018-06-25T09:35:58.168Z,1.70
2018-06-25T09:38:26.553Z,1.50
2018-06-25T09:40:54.919Z,2.30
2018-06-25T09:43:23.269Z,2.27
2018-06-25T09:45:51.651Z,1.60
2018-06-25T09:48:20.186Z,1.77
2018-06-25T09:50:48.637Z,1.60
2018-06-25T09:53:17.298Z,1.50
2018-06-25T09:55:45.627Z,2.07
2018-06-25T09:58:14.015Z,1.50
2018-06-25T10:00:47.712Z,1.40
2018-06-25T10:03:16.111Z,1.50
2018-06-25T10:05:44.505Z,1.60
2018-06-25T10:08:12.986Z,1.50
2018-06-25T10:10:41.540Z,1.90
2018-06-25T10:13:10.047Z,1.70
2018-06-25T10:15:38.432Z,1.93
2018-06-25T10:18:06.818Z,1.60
2018-06-25T10:20:35.230Z,1.80
2018-06-25T10:23:03.686Z,1.27
2018-06-25T10:25:32.219Z,1.13
2018-06-25T10:28:00.597Z,1.47
2018-06-25T10:30:29.008Z,1.80
2018-06-25T10:32:57.489Z,1.60
2018-06-25T10:35:25.911Z,1.67
2018-06-25T10:37:54.331Z,2.50
2018-06-25T10:40:22.946Z,1.53
2018-06-25T10:42:51.451Z,1.87
2018-06-25T10:45:19.948Z,1.10
2018-06-25T10:47:48.466Z,0.90
2018-06-25T10:50:16.990Z,1.20
2018-06-25T10:52:45.496Z,1.17
2018-06-25T10:55:13.984Z,1.00
2018-06-25T10:57:42.386Z,1.20
2018-06-25T11:00:11.059Z,1.20
2018-06-25T11:02:39.198Z,1.33
2018-06-25T11:05:07.635Z,1.17
2018-06-25T11:07:36.078Z,1.30
2018-06-25T11:10:04.453Z,1.00
2018-06-25T11:12:32.947Z,1.87
2018-06-25T11:15:01.408Z,1.43
2018-06-25T11:17:29.795Z,1.40
2018-06-25T11:19:58.281Z,0.97
2018-06-25T11:22:26.742Z,1.10
2018-06-25T11:24:55.416Z,0.80
2018-06-25T11:27:23.888Z,0.90
2018-06-25T11:29:52.233Z,0.90
2018-06-25T11:32:20.702Z,1.20
2018-06-25T11:34:49.262Z,1.13
2018-06-25T11:37:17.793Z,1.10
2018-06-25T11:39:46.257Z,1.00
2018-06-25T11:42:14.653Z,1.00
2018-06-25T11:44:43.050Z,0.90
2018-06-25T11:47:11.420Z,0.80
2018-06-25T11:49:39.816Z,1.00
2018-06-25T11:52:08.235Z,1.00
2018-06-25T11:54:36.921Z,0.80
2018-06-25T11:57:05.410Z,1.10
2018-06-25T11:59:33.803Z,1.30
2018-06-25T12:02:02.382Z,1.20
2018-06-25T12:04:30.703Z,1.10
2018-06-25T12:06:59.303Z,1.00
2018-06-25T12:09:27.879Z,1.10
2018-06-25T12:11:56.331Z,1.20
2018-06-25T12:14:24.821Z,1.00
2018-06-25T12:16:53.289Z,0.90
2018-06-25T12:19:21.723Z,0.97
2018-06-25T12:21:50.165Z,0.90
2018-06-25T12:24:18.780Z,0.90
2018-06-25T12:26:47.159Z,1.10
2018-06-25T12:29:15.566Z,1.00
2018-06-25T12:31:44.030Z,1.00
2018-06-25T12:34:12.393Z,1.00
2018-06-25T12:36:40.933Z,1.03
2018-06-25T12:39:10.473Z,1.00
2018-06-25T12:41:38.955Z,1.00
2018-06-25T12:44:08.150Z,1.10
2018-06-25T12:46:37.105Z,1.27
2018-06-25T12:49:05.536Z,1.03
2018-06-25T12:51:33.974Z,1.27
2018-06-25T12:54:02.417Z,1.17
2018-06-25T12:56:31.017Z,1.00
2018-06-25T12:58:59.468Z,1.10
2018-06-25T13:01:28.078Z,1.07
2018-06-25T13:03:56.516Z,1.10
2018-06-25T13:06:25.043Z,1.10
2018-06-25T13:08:53.431Z,1.70
2018-06-25T13:11:22.114Z,1.20
2018-06-25T13:13:50.564Z,1.60
2018-06-25T13:16:18.990Z,1.40
2018-06-25T13:18:47.374Z,1.50
2018-06-25T13:21:15.930Z,1.40
2018-06-25T13:23:44.383Z,1.40
2018-06-25T13:26:12.763Z,1.40
2018-06-25T13:28:41.342Z,1.10
2018-06-25T13:31:09.843Z,1.30
2018-06-25T13:33:38.262Z,1.17
2018-06-25T13:36:06.639Z,1.57
2018-06-25T13:38:35.184Z,1.30
2018-06-25T13:41:03.669Z,1.30
2018-06-25T13:43:32.053Z,1.43
2018-06-25T13:46:00.420Z,1.50
2018-06-25T13:48:28.827Z,1.50
2018-06-25T13:50:57.329Z,1.30
2018-06-25T13:53:25.945Z,1.17
2018-06-25T13:55:54.470Z,1.10
2018-06-25T13:58:22.886Z,1.53
2018-06-25T14:00:51.362Z,1.73
2018-06-25T14:03:19.739Z,1.50
2018-06-25T14:05:48.164Z,1.40
2018-06-25T14:08:16.590Z,1.40
2018-06-25T14:10:45.094Z,1.30
2018-06-25T14:13:13.708Z,1.37
2018-06-25T14:15:42.313Z,1.20
2018-06-25T14:18:10.889Z,1.60
2018-06-25T14:20:39.491Z,1.30
2018-06-25T14:23:08.230Z,1.20
2018-06-25T14:25:41.997Z,1.23
2018-06-25T14:28:15.811Z,1.30
2018-06-25T14:30:49.549Z,1.27
2018-06-25T14:33:22.161Z,1.00
2018-06-25T14:35:50.553Z,1.23
2018-06-25T14:38:19.060Z,1.60
2018-06-25T14:40:47.457Z,1.23
2018-06-25T14:43:15.983Z,1.07
2018-06-25T14:45:44.477Z,1.73
2018-06-25T14:48:12.957Z,1.30
2018-06-25T14:50:41.602Z,1.37
2018-06-25T14:53:10.154Z,2.20
2018-06-25T14:55:38.656Z,1.77
2018-06-25T14:58:07.097Z,4.60
2018-06-25T15:00:35.608Z,4.67
2018-06-25T15:03:04.166Z,2.87
2018-06-25T15:05:32.567Z,1.50
2018-06-25T15:08:01.052Z,1.70
2018-06-25T15:10:29.530Z,1.40
2018-06-25T15:12:58.054Z,1.30
2018-06-25T15:15:26.550Z,1.30
2018-06-25T15:17:54.970Z,3.20
2018-06-25T15:20:23.380Z,10.00
2018-06-25T15:22:51.984Z,12.97
2018-06-25T15:25:20.587Z,14.80
2018-06-25T15:27:49.239Z,10.93
2018-06-25T15:30:17.649Z,5.40
2018-06-25T15:32:46.470Z,1.87
2018-06-25T15:35:15.137Z,1.57
2018-06-25T15:37:43.573Z,1.30
2018-06-25T15:40:11.974Z,2.00
2018-06-25T15:42:40.365Z,1.20
2018-06-25T15:45:08.777Z,1.40
2018-06-25T15:47:37.342Z,1.57
2018-06-25T15:50:05.796Z,2.00
2018-06-25T15:52:34.226Z,2.30
2018-06-25T15:55:02.823Z,3.57
2018-06-25T15:57:31.420Z,2.70
2018-06-25T15:59:59.988Z,2.83
2018-06-25T16:02:28.446Z,1.73
2018-06-25T16:04:56.959Z,1.30
2018-06-25T16:07:25.511Z,1.20
2018-06-25T16:09:54.086Z,1.30
2018-06-25T16:12:22.497Z,0.93
2018-06-25T16:14:50.955Z,1.10
2018-06-25T16:17:19.422Z,1.20
2018-06-25T16:19:48.052Z,1.23
2018-06-25T16:22:16.526Z,1.20
2018-06-25T16:24:44.966Z,1.00
2018-06-25T16:27:13.703Z,0.93
2018-06-25T16:29:42.261Z,0.97
2018-06-25T16:32:10.682Z,0.90
2018-06-25T16:34:38.849Z,0.93
2018-06-25T16:37:07.566Z,1.30
2018-06-25T16:39:36.065Z,1.30
2018-06-25T16:42:04.745Z,1.80
2018-06-25T16:44:33.161Z,1.67
2018-06-25T16:47:01.818Z,1.10
2018-06-25T16:49:30.355Z,0.83
2018-06-25T16:51:58.837Z,0.80
2018-06-25T16:54:27.272Z,0.70
2018-06-25T16:56:55.831Z,0.80
2018-06-25T16:59:24.678Z,0.90
2018-06-25T17:01:53.990Z,1.00
2018-06-25T17:04:22.621Z,0.80
2018-06-25T17:06:51.127Z,1.00
2018-06-25T17:09:19.556Z,0.90
2018-06-25T17:11:48.009Z,3.87
2018-06-25T17:14:16.472Z,2.70
2018-06-25T17:16:45.067Z,1.87
2018-06-25T17:19:13.186Z,1.10
2018-06-25T17:21:41.797Z,1.10
2018-06-25T17:24:10.170Z,0.97
2018-06-25T17:26:39.251Z,1.10
2018-06-25T17:29:07.839Z,1.40
2018-06-25T17:31:36.378Z,1.17
2018-06-25T17:34:04.835Z,2.20
2018-06-25T17:36:33.342Z,1.77
2018-06-25T17:39:02.014Z,1.20
2018-06-25T17:41:30.559Z,1.00
2018-06-25T17:43:59.239Z,1.00
2018-06-25T17:46:27.883Z,1.17
2018-06-25T17:48:56.366Z,1.03
2018-06-25T17:51:25.152Z,0.90
2018-06-25T17:53:53.599Z,1.00
2018-06-25T17:56:22.250Z,1.03
2018-06-25T17:58:50.812Z,1.10
2018-06-25T18:01:19.304Z,1.20
2018-06-25T18:03:47.734Z,1.27
2018-06-25T18:06:16.310Z,1.90
2018-06-25T18:08:44.731Z,1.20
2018-06-25T18:11:13.159Z,1.40
2018-06-25T18:13:41.627Z,1.13
2018-06-25T18:16:10.509Z,1.10
2018-06-25T18:18:39.038Z,1.13
2018-06-25T18:21:07.768Z,1.20
2018-06-25T18:23:36.335Z,1.20
2018-06-25T18:26:05.087Z,1.30
2018-06-25T18:28:33.561Z,1.40
2018-06-25T18:31:02.277Z,1.43
2018-06-25T18:33:30.831Z,1.20
2018-06-25T18:35:59.376Z,1.43
2018-06-25T18:38:28.255Z,3.00
2018-06-25T18:40:57.050Z,1.67
2018-06-25T18:43:25.668Z,1.47
2018-06-25T18:45:54.412Z,1.97
2018-06-25T18:48:23.136Z,1.70
2018-06-25T18:50:51.764Z,1.50
2018-06-25T18:53:20.377Z,1.40
2018-06-25T18:55:48.875Z,1.77
2018-06-25T18:58:17.356Z,1.40
2018-06-25T19:00:45.929Z,1.60
2018-06-25T19:03:14.495Z,1.90
2018-06-25T19:05:43.377Z,1.90
2018-06-25T19:08:12.029Z,1.87
2018-06-25T19:10:40.891Z,1.77
2018-06-25T19:13:09.461Z,1.53
2018-06-25T19:15:38.056Z,1.70
2018-06-25T19:18:06.867Z,1.70
2018-06-25T19:20:35.547Z,1.43
2018-06-25T19:23:04.360Z,2.10
2018-06-25T19:25:32.902Z,1.70
2018-06-25T19:28:01.628Z,1.90
2018-06-25T19:30:30.215Z,1.93
2018-06-25T19:32:58.822Z,1.73
2018-06-25T19:35:27.573Z,1.67
2018-06-25T19:37:56.075Z,1.67
2018-06-25T19:40:24.529Z,1.60
2018-06-25T19:42:52.993Z,2.30
2018-06-25T19:45:21.498Z,1.80
2018-06-25T19:47:50.297Z,1.77
2018-06-25T19:50:18.765Z,1.93
2018-06-25T19:52:47.393Z,1.83
2018-06-25T19:55:16.030Z,2.20
2018-06-25T19:57:44.528Z,2.00
2018-06-25T20:00:13.189Z,1.73
2018-06-25T20:02:41.894Z,1.73
2018-06-25T20:05:10.440Z,2.33
2018-06-25T20:07:39.255Z,1.57
2018-06-25T20:10:08.108Z,2.80
2018-06-25T20:12:36.576Z,2.70
2018-06-25T20:15:05.661Z,1.77
2018-06-25T20:17:34.082Z,2.03
2018-06-25T20:20:02.571Z,2.00
2018-06-25T20:22:31.093Z,3.00
2018-06-25T20:24:59.571Z,2.77
2018-06-25T20:27:28.046Z,2.40
2018-06-25T20:29:56.679Z,2.50
2018-06-25T20:32:25.231Z,2.47
2018-06-25T20:34:53.896Z,2.00
2018-06-25T20:37:22.334Z,2.30
2018-06-25T20:39:50.972Z,1.70
2018-06-25T20:42:19.508Z,1.70
2018-06-25T20:44:48.101Z,2.10
2018-06-25T20:47:16.835Z,1.77
2018-06-25T20:49:45.362Z,2.47
2018-06-25T20:52:13.994Z,3.17
2018-06-25T20:54:42.411Z,6.30
2018-06-25T20:57:10.912Z,4.60
2018-06-25T20:59:39.299Z,5.17
2018-06-25T21:02:07.831Z,4.30
2018-06-25T21:04:36.436Z,4.07
2018-06-25T21:07:05.005Z,2.80
2018-06-25T21:09:33.526Z,2.60
2018-06-25T21:12:02.108Z,1.90
2018-06-25T21:14:30.510Z,1.90
2018-06-25T21:16:58.975Z,1.80
2018-06-25T21:19:27.685Z,2.03
2018-06-25T21:21:56.219Z,2.57
2018-06-25T21:24:24.769Z,3.50
2018-06-25T21:26:53.161Z,2.57
2018-06-25T21:29:21.649Z,2.07
2018-06-25T21:31:50.266Z,1.83
2018-06-25T21:34:18.704Z,1.90
2018-06-25T21:36:47.135Z,2.30
2018-06-25T21:39:15.760Z,2.20
2018-06-25T21:41:44.164Z,2.30
2018-06-25T21:44:12.711Z,2.07
2018-06-25T21:46:41.216Z,1.90
2018-06-25T21:49:09.651Z,1.80
2018-06-25T21:51:38.109Z,2.10
2018-06-25T21:54:06.578Z,1.73
2018-06-25T21:56:34.987Z,1.90
2018-06-25T21:59:03.438Z,2.10
2018-06-25T22:01:31.978Z,2.00
2018-06-25T22:04:00.384Z,2.23
2018-06-25T22:06:28.750Z,2.50
2018-06-25T22:08:57.188Z,2.17
2018-06-25T22:11:25.728Z,1.73
2018-06-25T22:13:54.165Z,1.87
2018-06-25T22:16:22.596Z,1.97
2018-06-25T22:18:51.077Z,1.90
2018-06-25T22:21:19.523Z,1.73
2018-06-25T22:23:48.016Z,1.73
2018-06-25T22:26:16.414Z,1.90
2018-06-25T22:28:44.779Z,2.03
2018-06-25T22:31:13.253Z,1.90
2018-06-25T22:33:41.641Z,2.00
2018-06-25T22:36:10.095Z,2.47
2018-06-25T22:38:38.526Z,1.70
2018-06-25T22:41:07.034Z,2.10
2018-06-25T22:43:35.597Z,1.90
2018-06-25T22:46:03.704Z,2.00
2018-06-25T22:48:32.101Z,1.60
2018-06-25T22:51:00.504Z,2.30
2018-06-25T22:53:28.938Z,2.50
2018-06-25T22:55:57.365Z,2.30
2018-06-25T22:58:25.760Z,2.30
2018-06-25T23:00:54.191Z,1.80
2018-06-25T23:03:22.808Z,2.10
2018-06-25T23:05:51.201Z,2.27
2018-06-25T23:08:19.396Z,3.37
2018-06-25T23:10:47.870Z,2.20
2018-06-25T23:13:16.367Z,2.50
2018-06-25T23:15:44.806Z,1.93
2018-06-25T23:18:13.304Z,1.80
2018-06-25T23:20:41.385Z,2.07
2018-06-25T23:23:09.851Z,2.13
2018-06-25T23:25:38.241Z,2.07
2018-06-25T23:28:06.722Z,2.50
2018-06-25T23:30:35.046Z,1.80
2018-06-25T23:33:03.419Z,2.10
2018-06-25T23:35:31.890Z,2.57
2018-06-25T23:38:00.393Z,2.50
2018-06-25T23:40:28.840Z,2.00
2018-06-25T23:42:57.338Z,2.20
2018-06-25T23:45:25.908Z,2.30
2018-06-25T23:47:54.302Z,2.30
2018-06-25T23:50:22.751Z,2.50
2018-06-25T23:52:51.146Z,2.60
2018-06-25T23:55:19.634Z,2.20
2018-06-25T23:57:48.132Z,2.23
